Time;durP1;ratioP1;P1;durP2;ratioP2;P2;SDS_P1;SDS_P2;PMS_P1;PMS_P2;Temp;Humidity;BMP_temperature;BMP_pressure;BME280_temperature;BME280_humidity;BME280_pressure;Samples;Min_cycle;Max_cycle;Signal;HPM_P1;HPM_P2
2023/11/11 00:00:28;;;;;;;16.70;10.93;;;6.30;99.90;;;;;;5077335;28;20483;-90
2023/11/11 00:02:55;;;;;;;16.25;9.50;;;6.20;99.90;;;;;;5076692;28;20048;-90
2023/11/11 00:05:22;;;;;;;18.27;9.57;;;6.20;99.90;;;;;;5075707;28;20039;-90
2023/11/11 00:07:47;;;;;;;15.75;9.98;;;6.20;99.90;;;;;;5091410;28;20032;-90
2023/11/11 00:10:13;;;;;;;17.15;9.32;;;6.20;99.90;;;;;;5093243;28;20084;-89
2023/11/11 00:12:39;;;;;;;14.18;8.40;;;6.20;99.90;;;;;;5092520;28;20480;-90
2023/11/11 00:15:09;;;;;;;14.88;8.52;;;6.20;99.90;;;;;;5077596;28;20379;-91
2023/11/11 00:17:35;;;;;;;12.70;8.18;;;6.20;99.90;;;;;;5073326;28;20519;-91
2023/11/11 00:20:02;;;;;;;16.83;8.95;;;6.10;99.90;;;;;;5075982;28;20028;-91
2023/11/11 00:22:28;;;;;;;13.15;8.25;;;6.10;99.90;;;;;;5075075;28;20031;-91
2023/11/11 00:24:54;;;;;;;15.68;8.38;;;6.10;99.90;;;;;;5075659;28;20031;-91
2023/11/11 00:27:21;;;;;;;13.68;7.85;;;6.10;99.90;;;;;;5076708;28;20031;-90
2023/11/11 00:29:47;;;;;;;18.55;7.97;;;6.10;99.90;;;;;;5094110;28;20016;-91
2023/11/11 00:32:13;;;;;;;12.63;7.25;;;6.00;99.90;;;;;;5074674;28;20154;-91
2023/11/11 00:34:39;;;;;;;13.50;7.63;;;6.00;99.90;;;;;;5075795;28;20031;-91
2023/11/11 00:37:06;;;;;;;13.93;7.70;;;6.00;99.90;;;;;;5076216;28;20053;-91
2023/11/11 00:39:33;;;;;;;10.95;7.18;;;5.90;99.90;;;;;;5075706;28;20024;-91
2023/11/11 00:42:00;;;;;;;13.60;6.82;;;5.90;99.90;;;;;;5074108;28;20040;-91
2023/11/11 00:44:26;;;;;;;11.23;7.43;;;5.80;99.90;;;;;;5072796;28;20107;-91
2023/11/11 00:46:52;;;;;;;16.58;7.45;;;5.80;99.90;;;;;;5082421;28;20134;-91
2023/11/11 00:49:17;;;;;;;12.25;7.20;;;5.70;99.90;;;;;;5069975;28;20455;-91
2023/11/11 00:51:43;;;;;;;10.38;6.63;;;5.70;99.90;;;;;;5076380;28;20130;-91
2023/11/11 00:54:09;;;;;;;12.38;6.75;;;5.60;99.90;;;;;;5074879;28;20064;-91
2023/11/11 00:56:35;;;;;;;16.13;7.55;;;5.60;99.90;;;;;;5092847;28;20021;-91
2023/11/11 00:59:01;;;;;;;15.45;8.52;;;5.60;99.90;;;;;;5073763;28;20100;-91
2023/11/11 01:01:26;;;;;;;16.98;6.72;;;5.70;99.90;;;;;;5035131;28;1114653;-91
2023/11/11 01:03:52;;;;;;;10.45;6.00;;;5.70;99.90;;;;;;5076968;28;20111;-92
2023/11/11 01:06:18;;;;;;;10.85;6.03;;;5.80;99.90;;;;;;5071341;28;20024;-91
2023/11/11 01:08:43;;;;;;;13.40;5.95;;;5.80;99.90;;;;;;5075640;28;20036;-91
2023/11/11 01:11:09;;;;;;;13.45;6.10;;;5.80;99.90;;;;;;5076616;28;20488;-91
2023/11/11 01:13:35;;;;;;;11.15;5.72;;;5.80;99.90;;;;;;5076535;28;20035;-92
2023/11/11 01:16:02;;;;;;;10.15;5.28;;;5.90;99.90;;;;;;5074500;28;20431;-91
2023/11/11 01:18:29;;;;;;;12.52;6.07;;;5.80;99.90;;;;;;5076052;28;20483;-91
2023/11/11 01:20:56;;;;;;;13.35;5.22;;;5.80;99.90;;;;;;5076264;28;20114;-91
2023/11/11 01:23:22;;;;;;;13.65;6.13;;;5.90;99.90;;;;;;5073571;28;20051;-92
2023/11/11 01:25:47;;;;;;;13.98;5.35;;;5.90;99.90;;;;;;5076622;28;20107;-91
2023/11/11 01:28:13;;;;;;;10.40;5.28;;;5.90;99.90;;;;;;5074631;28;20027;-91
2023/11/11 01:30:39;;;;;;;11.45;4.82;;;5.90;99.90;;;;;;5073679;28;20025;-91
2023/11/11 01:33:06;;;;;;;9.52;4.90;;;5.90;99.90;;;;;;5076788;28;20041;-91
2023/11/11 01:35:31;;;;;;;16.73;5.38;;;6.00;99.90;;;;;;5075255;28;20020;-91
2023/11/11 01:37:57;;;;;;;12.43;5.03;;;6.00;99.90;;;;;;5074769;28;20177;-91
2023/11/11 01:40:23;;;;;;;10.90;4.82;;;6.00;99.90;;;;;;5084903;28;20024;-91
2023/11/11 01:42:49;;;;;;;10.15;4.72;;;6.10;99.90;;;;;;5084209;28;20549;-91
2023/11/11 01:45:14;;;;;;;12.25;6.10;;;6.10;99.90;;;;;;5075424;28;20028;-91
2023/11/11 01:47:41;;;;;;;10.07;4.25;;;6.20;99.90;;;;;;5073010;28;20034;-91
2023/11/11 01:50:07;;;;;;;9.30;4.47;;;6.20;99.90;;;;;;5075443;28;20024;-92
2023/11/11 01:52:33;;;;;;;9.38;4.00;;;6.20;99.90;;;;;;5072893;28;20024;-92
2023/11/11 01:54:59;;;;;;;8.43;3.80;;;6.20;99.90;;;;;;5087589;28;20020;-92
2023/11/11 01:57:25;;;;;;;10.93;3.80;;;6.20;99.90;;;;;;5068730;28;20036;-91
2023/11/11 01:59:51;;;;;;;10.25;3.80;;;6.20;99.90;;;;;;5086458;28;20472;-91
2023/11/11 02:02:17;;;;;;;9.90;4.03;;;6.20;99.90;;;;;;5075018;28;20047;-91
2023/11/11 02:04:42;;;;;;;8.68;3.65;;;6.20;99.90;;;;;;5072661;28;20039;-91
2023/11/11 02:07:09;;;;;;;10.40;3.67;;;6.10;99.90;;;;;;5074973;28;20035;-91
2023/11/11 02:09:34;;;;;;;9.18;3.42;;;6.10;99.90;;;;;;5075356;28;20078;-91
2023/11/11 02:12:00;;;;;;;5.47;3.08;;;6.10;99.90;;;;;;5072864;28;20027;-90
2023/11/11 02:14:26;;;;;;;10.10;2.95;;;6.20;99.90;;;;;;5073580;28;20555;-91
2023/11/11 02:16:51;;;;;;;7.60;2.65;;;6.20;99.90;;;;;;5075064;28;20032;-91
2023/11/11 02:19:17;;;;;;;9.05;2.90;;;6.20;99.90;;;;;;5073665;28;20024;-91
2023/11/11 02:21:43;;;;;;;8.68;2.20;;;6.20;99.90;;;;;;5075546;28;20074;-90
2023/11/11 02:24:10;;;;;;;9.02;2.92;;;6.20;99.90;;;;;;5074953;28;20052;-90
2023/11/11 02:26:36;;;;;;;7.65;2.60;;;6.30;99.90;;;;;;5075145;28;20806;-91
2023/11/11 02:29:01;;;;;;;12.48;3.80;;;6.30;99.90;;;;;;5074782;28;20020;-90
2023/11/11 02:31:27;;;;;;;8.23;1.58;;;6.40;99.90;;;;;;5079581;28;20035;-90
2023/11/11 02:33:52;;;;;;;6.35;1.65;;;6.40;99.90;;;;;;5074971;28;20032;-92
2023/11/11 02:36:19;;;;;;;5.68;1.40;;;6.50;99.90;;;;;;5075245;28;20028;-90
2023/11/11 02:38:45;;;;;;;3.72;1.25;;;6.40;99.90;;;;;;5074785;28;20077;-90
2023/11/11 02:41:10;;;;;;;4.10;1.27;;;6.50;99.90;;;;;;5073325;28;20020;-90
2023/11/11 02:43:36;;;;;;;8.82;0.60;;;6.50;99.90;;;;;;5074113;28;20043;-90
2023/11/11 02:46:02;;;;;;;3.53;0.50;;;6.50;99.90;;;;;;5074833;28;20442;-90
2023/11/11 02:48:28;;;;;;;7.05;0.50;;;6.50;99.90;;;;;;5074071;28;20036;-90
2023/11/11 02:50:53;;;;;;;4.05;0.55;;;6.50;99.90;;;;;;5072304;28;20080;-90
2023/11/11 02:53:19;;;;;;;5.40;0.60;;;6.40;99.90;;;;;;5074092;28;20024;-90
2023/11/11 02:55:45;;;;;;;2.28;0.40;;;6.40;99.90;;;;;;5073685;28;20020;-91
2023/11/11 02:58:11;;;;;;;3.30;0.40;;;6.30;99.90;;;;;;5074864;28;20038;-90
2023/11/11 03:00:40;;;;;;;7.18;0.40;;;6.20;99.90;;;;;;5073808;28;20032;-91
2023/11/11 03:03:07;;;;;;;5.82;0.50;;;6.20;99.90;;;;;;5071668;28;20071;-90
2023/11/11 03:05:33;;;;;;;2.78;0.47;;;6.10;99.90;;;;;;5074550;28;20081;-91
2023/11/11 03:07:58;;;;;;;8.18;0.45;;;6.10;99.90;;;;;;5074845;28;20031;-91
2023/11/11 03:10:25;;;;;;;3.85;0.38;;;6.00;99.90;;;;;;5074172;28;20368;-91
2023/11/11 03:12:50;;;;;;;3.05;0.82;;;6.00;99.90;;;;;;5072234;28;20388;-91
2023/11/11 03:15:16;;;;;;;3.95;0.35;;;5.90;99.90;;;;;;5073751;28;20020;-90
2023/11/11 03:17:43;;;;;;;1.73;0.20;;;5.90;99.90;;;;;;5090942;28;20036;-91
2023/11/11 03:20:09;;;;;;;5.45;0.30;;;5.80;99.90;;;;;;5074305;28;20028;-90
2023/11/11 03:22:34;;;;;;;3.50;0.30;;;5.80;99.90;;;;;;5067834;28;20032;-91
2023/11/11 03:25:00;;;;;;;1.77;0.30;;;5.80;99.90;;;;;;5089365;28;20074;-91
2023/11/11 03:27:26;;;;;;;2.65;0.40;;;5.80;99.90;;;;;;5072387;28;20036;-89
2023/11/11 03:29:51;;;;;;;5.68;0.50;;;5.90;99.90;;;;;;5074033;28;20027;-90
2023/11/11 03:32:17;;;;;;;8.50;0.75;;;5.90;99.90;;;;;;5071108;28;20059;-90
2023/11/11 03:34:43;;;;;;;4.57;0.40;;;6.00;99.90;;;;;;5073287;28;20081;-90
2023/11/11 03:37:09;;;;;;;3.85;0.60;;;6.20;99.90;;;;;;5074175;28;20126;-90
2023/11/11 03:39:34;;;;;;;7.28;0.47;;;6.30;99.90;;;;;;5073399;28;20025;-90
2023/11/11 03:42:00;;;;;;;6.93;0.60;;;6.40;99.90;;;;;;5089514;28;20028;-89
2023/11/11 03:44:25;;;;;;;2.25;0.30;;;6.50;99.90;;;;;;5072478;28;20468;-88
2023/11/11 03:46:51;;;;;;;4.10;0.40;;;6.50;99.90;;;;;;5073989;28;20028;-88
2023/11/11 03:49:17;;;;;;;2.67;0.52;;;6.60;99.90;;;;;;5072007;28;20024;-87
2023/11/11 03:51:42;;;;;;;3.08;0.47;;;6.60;99.90;;;;;;5072420;28;20077;-88
2023/11/11 03:54:08;;;;;;;1.77;0.20;;;6.70;99.90;;;;;;5071464;28;20380;-87
2023/11/11 03:56:33;;;;;;;3.25;0.65;;;6.70;99.90;;;;;;5092087;28;20123;-88
2023/11/11 03:58:59;;;;;;;3.35;0.30;;;6.70;99.90;;;;;;5073636;28;20030;-88
2023/11/11 04:01:24;;;;;;;3.10;0.30;;;6.70;99.90;;;;;;5089500;28;20554;-88
2023/11/11 04:03:50;;;;;;;1.45;0.38;;;6.70;99.90;;;;;;5090256;28;20024;-89
2023/11/11 04:06:16;;;;;;;3.05;0.20;;;6.70;99.90;;;;;;5073323;28;20028;-89
2023/11/11 04:08:41;;;;;;;1.58;0.20;;;6.80;99.90;;;;;;5073200;28;20067;-89
2023/11/11 04:11:07;;;;;;;2.47;0.30;;;6.80;99.90;;;;;;5071286;28;20028;-89
2023/11/11 04:13:34;;;;;;;6.00;0.30;;;6.70;99.90;;;;;;5067247;28;20025;-90
2023/11/11 04:15:59;;;;;;;2.15;0.20;;;6.70;99.90;;;;;;5071101;28;20028;-92
2023/11/11 04:18:25;;;;;;;2.10;0.35;;;6.60;99.90;;;;;;5090035;28;20392;-90
2023/11/11 04:20:52;;;;;;;4.07;0.50;;;6.60;99.90;;;;;;5073973;28;20077;-89
2023/11/11 04:23:18;;;;;;;3.88;0.50;;;6.50;99.90;;;;;;5078136;28;20036;-88
2023/11/11 04:25:43;;;;;;;2.97;0.90;;;6.50;99.90;;;;;;5074756;28;20123;-90
2023/11/11 04:28:09;;;;;;;4.60;0.50;;;6.50;99.90;;;;;;5077416;28;20032;-89
2023/11/11 04:30:34;;;;;;;2.88;0.70;;;6.40;99.90;;;;;;5076969;28;20445;-89
2023/11/11 04:33:00;;;;;;;5.03;0.70;;;6.50;99.90;;;;;;5076139;28;20034;-90
2023/11/11 04:35:25;;;;;;;3.97;0.60;;;6.40;99.90;;;;;;5076543;28;20541;-89
2023/11/11 04:37:51;;;;;;;6.18;0.73;;;6.50;99.90;;;;;;5076828;28;20038;-89
2023/11/11 04:40:17;;;;;;;3.90;1.08;;;6.60;99.90;;;;;;5076092;28;20025;-87
2023/11/11 04:42:43;;;;;;;4.97;0.70;;;6.60;99.90;;;;;;5075589;28;20064;-88
2023/11/11 04:45:09;;;;;;;7.32;1.00;;;6.60;99.90;;;;;;5075552;28;20069;-87
2023/11/11 04:47:35;;;;;;;6.63;1.27;;;6.70;99.90;;;;;;5074586;28;20070;-89
2023/11/11 04:50:02;;;;;;;5.82;0.95;;;6.70;99.90;;;;;;5077077;28;20024;-89
2023/11/11 04:52:28;;;;;;;5.07;0.80;;;6.70;99.90;;;;;;5076076;28;20395;-89
2023/11/11 04:54:54;;;;;;;2.22;0.80;;;6.70;99.90;;;;;;5064300;28;20024;-90
2023/11/11 04:57:19;;;;;;;7.07;1.00;;;6.80;99.90;;;;;;5088682;28;20024;-89
2023/11/11 04:59:45;;;;;;;6.50;1.00;;;6.80;99.90;;;;;;5093401;28;20028;-90
2023/11/11 05:02:10;;;;;;;7.30;1.15;;;6.80;99.90;;;;;;5092793;28;20044;-88
2023/11/11 05:04:36;;;;;;;5.75;1.08;;;6.80;99.90;;;;;;5076033;28;20023;-89
2023/11/11 05:07:03;;;;;;;4.57;1.33;;;6.80;99.90;;;;;;5072378;28;20020;-89
2023/11/11 05:09:29;;;;;;;8.85;1.20;;;6.80;99.90;;;;;;5072768;28;20115;-88
2023/11/11 05:11:55;;;;;;;5.55;2.03;;;6.80;99.90;;;;;;5074564;28;20112;-88
2023/11/11 05:14:22;;;;;;;7.72;1.23;;;6.80;99.90;;;;;;5085684;28;20028;-87
2023/11/11 05:16:52;;;;;;;4.50;1.20;;;6.80;99.90;;;;;;5080752;28;20026;-87
2023/11/11 05:19:18;;;;;;;4.20;1.20;;;6.80;99.90;;;;;;5072068;28;20012;-87
2023/11/11 05:21:44;;;;;;;5.13;1.42;;;6.80;99.90;;;;;;5074432;28;20094;-88
2023/11/11 05:24:10;;;;;;;5.00;1.20;;;6.80;99.90;;;;;;5075813;28;20024;-89
2023/11/11 05:26:38;;;;;;;5.57;1.50;;;6.80;99.90;;;;;;5073045;28;20032;-89
2023/11/11 05:29:04;;;;;;;5.45;1.10;;;6.90;99.90;;;;;;5075698;28;20032;-89
2023/11/11 05:31:31;;;;;;;6.07;1.95;;;6.80;99.90;;;;;;5087319;28;20050;-88
2023/11/11 05:34:06;;;;;;;3.22;1.23;;;6.90;99.90;;;;;;5087177;28;20468;-89
2023/11/11 05:36:33;;;;;;;6.00;1.25;;;6.80;99.90;;;;;;5074945;28;20067;-88
2023/11/11 05:38:58;;;;;;;2.92;1.42;;;6.90;99.90;;;;;;5083372;28;20048;-89
2023/11/11 05:41:24;;;;;;;4.32;1.10;;;6.90;99.90;;;;;;5071231;28;20067;-89
2023/11/11 05:43:49;;;;;;;3.75;0.95;;;6.80;99.90;;;;;;5080880;28;20036;-89
2023/11/11 05:46:15;;;;;;;3.58;1.10;;;6.80;99.90;;;;;;5075540;28;20026;-88
2023/11/11 05:48:43;;;;;;;3.67;0.80;;;6.80;99.90;;;;;;5073576;28;20027;-89
2023/11/11 05:51:08;;;;;;;2.35;0.80;;;6.80;99.90;;;;;;5074007;28;20064;-88
2023/11/11 05:53:34;;;;;;;10.23;1.45;;;6.70;99.90;;;;;;5077400;28;20020;-89
2023/11/11 05:56:00;;;;;;;4.82;0.90;;;6.70;99.90;;;;;;5070272;28;20483;-89
2023/11/11 05:58:25;;;;;;;4.70;0.95;;;6.70;99.90;;;;;;5073451;28;20020;-90
2023/11/11 06:00:51;;;;;;;6.78;1.00;;;6.80;99.90;;;;;;5087773;28;20020;-89
2023/11/11 06:03:18;;;;;;;9.45;1.23;;;6.70;99.90;;;;;;5067063;28;20090;-90
2023/11/11 06:05:45;;;;;;;11.02;2.38;;;6.70;99.90;;;;;;5065967;28;20107;-89
2023/11/11 06:08:11;;;;;;;5.38;1.30;;;6.70;99.90;;;;;;5087379;28;20027;-88
2023/11/11 06:10:40;;;;;;;8.32;1.90;;;6.70;99.90;;;;;;5072516;28;20028;-87
2023/11/11 06:13:06;;;;;;;6.72;1.98;;;6.70;99.90;;;;;;5095666;28;20016;-87
2023/11/11 06:15:32;;;;;;;6.82;2.17;;;6.70;99.90;;;;;;5075404;28;20024;-87
2023/11/11 06:17:58;;;;;;;8.07;2.03;;;6.70;99.90;;;;;;5075410;28;20058;-88
2023/11/11 06:20:23;;;;;;;7.80;2.10;;;6.70;99.90;;;;;;5076392;28;20048;-88
2023/11/11 06:22:53;;;;;;;5.22;1.73;;;6.80;99.90;;;;;;5077356;28;20035;-88
2023/11/11 06:25:19;;;;;;;7.60;2.55;;;6.70;99.90;;;;;;5073288;28;20020;-87
2023/11/11 06:27:45;;;;;;;4.45;1.98;;;6.70;99.90;;;;;;5074851;28;20029;-88
2023/11/11 06:30:12;;;;;;;9.63;3.42;;;6.80;99.90;;;;;;5067787;28;20031;-89
2023/11/11 06:32:38;;;;;;;5.13;1.55;;;6.70;99.90;;;;;;5075552;28;20484;-88
2023/11/11 06:35:04;;;;;;;7.72;2.38;;;6.70;99.90;;;;;;5092687;28;20020;-87
2023/11/11 06:37:30;;;;;;;6.55;1.90;;;6.70;99.90;;;;;;5076862;28;20525;-87
2023/11/11 06:39:56;;;;;;;6.90;2.10;;;6.70;99.90;;;;;;5062910;28;20180;-87
2023/11/11 06:42:21;;;;;;;10.57;3.75;;;6.70;99.90;;;;;;5072567;28;20072;-86
2023/11/11 06:44:47;;;;;;;7.70;2.78;;;6.70;99.90;;;;;;5075791;28;20027;-87
2023/11/11 06:47:14;;;;;;;9.20;2.08;;;6.70;99.90;;;;;;5090005;28;20028;-88
2023/11/11 06:49:41;;;;;;;10.75;1.80;;;6.60;99.90;;;;;;5065138;28;20055;-89
2023/11/11 06:52:06;;;;;;;5.22;1.40;;;6.60;99.90;;;;;;5075654;28;20081;-89
2023/11/11 06:54:32;;;;;;;8.02;2.53;;;6.50;99.90;;;;;;5098243;28;21655;-89
2023/11/11 06:56:57;;;;;;;7.13;2.20;;;6.40;99.90;;;;;;5084142;28;20024;-89
2023/11/11 06:59:23;;;;;;;7.18;2.45;;;6.40;99.90;;;;;;5075588;28;20027;-90
2023/11/11 07:01:49;;;;;;;6.78;2.38;;;6.30;99.90;;;;;;5072770;28;20068;-90
2023/11/11 07:04:15;;;;;;;9.95;2.70;;;6.20;99.90;;;;;;5073426;28;20515;-89
2023/11/11 07:06:41;;;;;;;11.63;2.47;;;6.20;99.90;;;;;;5060562;28;20027;-89
2023/11/11 07:09:07;;;;;;;6.07;3.05;;;6.10;99.90;;;;;;5059729;28;20020;-90
2023/11/11 07:11:32;;;;;;;11.68;3.22;;;6.10;99.90;;;;;;5064380;28;20054;-89
2023/11/11 07:13:58;;;;;;;7.82;2.90;;;6.10;99.90;;;;;;5068390;28;20040;-90
2023/11/11 07:16:25;;;;;;;13.68;3.13;;;6.00;99.90;;;;;;5060135;28;20035;-90
2023/11/11 07:18:51;;;;;;;17.40;4.47;;;6.00;99.90;;;;;;5076065;28;20118;-90
2023/11/11 07:21:22;;;;;;;7.00;2.92;;;6.00;99.90;;;;;;5074778;28;20055;-90
2023/11/11 07:23:48;;;;;;;8.32;3.00;;;6.00;99.90;;;;;;5074613;28;20039;-90
2023/11/11 07:26:16;;;;;;;8.65;4.00;;;5.90;99.90;;;;;;5075189;28;20028;-90
2023/11/11 07:28:43;;;;;;;9.02;4.20;;;6.00;99.90;;;;;;5092684;28;20031;-90
2023/11/11 07:31:08;;;;;;;12.85;4.72;;;6.00;99.90;;;;;;5074744;28;20372;-90
2023/11/11 07:33:34;;;;;;;11.02;4.53;;;6.00;99.90;;;;;;5062646;28;20031;-90
2023/11/11 07:36:00;;;;;;;12.05;4.72;;;6.00;99.90;;;;;;5071198;28;20056;-91
2023/11/11 07:38:26;;;;;;;10.88;4.95;;;6.00;99.90;;;;;;5074270;28;20039;-90
2023/11/11 07:40:51;;;;;;;11.20;5.28;;;6.10;99.90;;;;;;5073386;28;20825;-90
2023/11/11 07:43:17;;;;;;;16.50;4.75;;;6.10;99.90;;;;;;5061682;28;20036;-91
2023/11/11 07:45:42;;;;;;;9.90;5.10;;;6.20;99.90;;;;;;5070379;28;20031;-89
2023/11/11 07:48:08;;;;;;;10.02;4.57;;;6.20;99.90;;;;;;5072931;28;20034;-90
2023/11/11 07:50:35;;;;;;;11.73;4.75;;;6.30;99.90;;;;;;5066650;28;20158;-90
2023/11/11 07:53:00;;;;;;;8.65;4.63;;;6.40;99.90;;;;;;5073943;28;20021;-90
2023/11/11 07:55:26;;;;;;;7.60;3.67;;;6.40;99.90;;;;;;5077216;28;20032;-90
2023/11/11 07:57:52;;;;;;;8.07;4.65;;;6.50;99.90;;;;;;5080602;28;20024;-90
2023/11/11 08:00:19;;;;;;;13.13;4.50;;;6.60;99.90;;;;;;5081266;28;20020;-90
2023/11/11 08:02:45;;;;;;;12.55;4.88;;;6.70;99.90;;;;;;5094973;28;20138;-89
2023/11/11 08:05:10;;;;;;;9.48;4.53;;;6.80;99.90;;;;;;5078427;28;20056;-89
2023/11/11 08:07:37;;;;;;;7.88;4.30;;;6.80;99.90;;;;;;5078490;28;20114;-89
2023/11/11 08:10:04;;;;;;;8.45;3.70;;;6.80;99.90;;;;;;5088127;28;20020;-89
2023/11/11 08:12:29;;;;;;;7.85;3.88;;;6.80;99.90;;;;;;5074477;28;20028;-89
2023/11/11 08:14:57;;;;;;;6.03;3.17;;;6.70;99.90;;;;;;5098239;28;20027;-89
2023/11/11 08:17:23;;;;;;;8.05;3.58;;;6.70;99.90;;;;;;5098325;28;20020;-88
2023/11/11 08:19:48;;;;;;;8.18;4.03;;;6.70;99.90;;;;;;5064474;28;20024;-89
2023/11/11 08:22:14;;;;;;;11.40;4.63;;;6.80;99.90;;;;;;5090000;28;20040;-89
2023/11/11 08:24:39;;;;;;;12.80;3.95;;;6.80;99.90;;;;;;5091906;28;20084;-88
2023/11/11 08:27:05;;;;;;;8.23;4.18;;;6.90;99.90;;;;;;5083217;28;20036;-89
2023/11/11 08:29:30;;;;;;;12.45;3.67;;;6.90;99.90;;;;;;5084547;28;20031;-89
2023/11/11 08:31:57;;;;;;;7.10;3.90;;;7.00;99.90;;;;;;5076573;28;20122;-88
2023/11/11 08:34:29;;;;;;;11.07;3.60;;;7.00;99.90;;;;;;5074036;28;20111;-88
2023/11/11 08:36:58;;;;;;;7.32;3.92;;;7.10;99.90;;;;;;5077575;28;20032;-87
2023/11/11 08:39:24;;;;;;;9.95;4.05;;;7.10;99.90;;;;;;5071307;28;20028;-86
2023/11/11 08:41:51;;;;;;;9.88;4.15;;;7.10;99.90;;;;;;5070507;28;20415;-86
2023/11/11 08:44:17;;;;;;;6.97;3.55;;;7.10;99.90;;;;;;5068882;28;20030;-85
2023/11/11 08:46:42;;;;;;;9.18;3.85;;;7.10;99.90;;;;;;5086495;28;20036;-87
2023/11/11 08:49:08;;;;;;;8.85;4.07;;;7.10;99.90;;;;;;5087404;28;20065;-87
2023/11/11 08:51:33;;;;;;;8.05;4.43;;;7.10;99.90;;;;;;5075598;28;20032;-88
2023/11/11 08:54:00;;;;;;;9.45;4.43;;;7.00;99.90;;;;;;5080890;28;20111;-88
2023/11/11 08:56:28;;;;;;;8.27;4.15;;;7.00;99.90;;;;;;5071399;28;20476;-88
2023/11/11 08:58:55;;;;;;;12.70;5.47;;;7.00;99.90;;;;;;5071957;28;20030;-88
2023/11/11 09:01:21;;;;;;;11.00;4.55;;;7.00;99.90;;;;;;5068567;28;20044;-87
2023/11/11 09:03:49;;;;;;;10.63;5.38;;;7.00;99.90;;;;;;5055677;28;20063;-87
2023/11/11 09:06:18;;;;;;;14.57;4.90;;;7.10;99.90;;;;;;5070442;28;20119;-88
2023/11/11 09:08:44;;;;;;;9.82;4.78;;;7.10;99.90;;;;;;5075380;28;20110;-87
2023/11/11 09:11:11;;;;;;;7.25;3.72;;;7.20;99.90;;;;;;5057873;28;20036;-88
2023/11/11 09:13:38;;;;;;;10.90;5.05;;;7.20;99.90;;;;;;5063627;28;20031;-88
2023/11/11 09:16:05;;;;;;;15.43;4.47;;;7.30;99.90;;;;;;5054466;28;20029;-89
2023/11/11 09:18:31;;;;;;;15.70;5.22;;;7.30;99.90;;;;;;5064804;28;20089;-88
2023/11/11 09:20:57;;;;;;;13.57;5.07;;;7.30;99.90;;;;;;5079717;28;20087;-88
2023/11/11 09:23:23;;;;;;;9.38;5.07;;;7.30;99.90;;;;;;5061349;28;20083;-90
2023/11/11 09:25:49;;;;;;;10.23;5.40;;;7.40;99.90;;;;;;5073044;28;20056;-89
2023/11/11 09:28:14;;;;;;;11.50;5.30;;;7.50;99.90;;;;;;5075014;28;20110;-88
2023/11/11 09:30:40;;;;;;;11.77;5.20;;;7.60;99.90;;;;;;5068115;28;21941;-88
2023/11/11 09:33:06;;;;;;;14.68;6.35;;;7.70;99.90;;;;;;5080789;28;20055;-89
2023/11/11 09:35:32;;;;;;;12.30;5.53;;;7.70;99.90;;;;;;5076286;28;20027;-88
2023/11/11 09:37:57;;;;;;;13.02;6.00;;;7.90;99.90;;;;;;5079360;28;20106;-89
2023/11/11 09:40:23;;;;;;;12.75;6.43;;;8.00;99.90;;;;;;5069779;28;20036;-87
2023/11/11 09:42:49;;;;;;;12.38;6.45;;;8.20;99.90;;;;;;5075883;28;20036;-88
2023/11/11 09:45:14;;;;;;;11.07;5.68;;;8.40;99.90;;;;;;5080520;28;20024;-89
2023/11/11 09:47:42;;;;;;;15.25;6.57;;;8.70;99.90;;;;;;5063523;28;20055;-89
2023/11/11 09:50:10;;;;;;;12.90;5.25;;;8.90;99.90;;;;;;5080278;28;20555;-89
2023/11/11 09:52:38;;;;;;;13.00;5.65;;;9.10;99.90;;;;;;5078709;28;20028;-88
2023/11/11 09:55:04;;;;;;;11.00;4.88;;;9.10;99.90;;;;;;5065764;28;20033;-87
2023/11/11 09:57:32;;;;;;;9.98;5.40;;;9.00;99.90;;;;;;5075131;28;20037;-85
2023/11/11 09:59:58;;;;;;;15.57;5.30;;;8.90;99.90;;;;;;5078118;28;20388;-86
2023/11/11 10:02:24;;;;;;;15.00;5.28;;;8.80;99.90;;;;;;5078645;28;20044;-87
2023/11/11 10:04:52;;;;;;;13.35;5.47;;;8.60;99.90;;;;;;5077690;28;20024;-87
2023/11/11 10:07:21;;;;;;;14.30;5.53;;;8.50;99.90;;;;;;5063626;28;20085;-87
2023/11/11 10:09:49;;;;;;;8.68;4.95;;;8.40;99.90;;;;;;5067548;28;20056;-87
2023/11/11 10:12:14;;;;;;;13.40;5.38;;;8.30;99.90;;;;;;5064205;28;20032;-88
2023/11/11 10:14:40;;;;;;;15.68;5.28;;;8.10;99.90;;;;;;5055838;28;20025;-88
2023/11/11 10:17:11;;;;;;;14.25;5.78;;;8.10;99.90;;;;;;5065955;28;20026;-88
2023/11/11 10:19:42;;;;;;;15.75;5.43;;;8.00;99.90;;;;;;5064505;28;20031;-88
2023/11/11 10:22:08;;;;;;;13.63;5.85;;;8.00;99.90;;;;;;5062907;28;20032;-88
2023/11/11 10:24:34;;;;;;;15.25;5.70;;;7.90;99.90;;;;;;5067445;28;20076;-88
2023/11/11 10:26:59;;;;;;;11.88;4.97;;;7.80;99.90;;;;;;5066441;28;20016;-88
2023/11/11 10:29:26;;;;;;;14.98;5.80;;;7.80;99.90;;;;;;5082171;28;20503;-88
2023/11/11 10:31:52;;;;;;;11.88;4.70;;;7.80;99.90;;;;;;5063942;28;20777;-88
2023/11/11 10:34:17;;;;;;;14.18;6.07;;;7.80;99.90;;;;;;5083028;28;20107;-88
2023/11/11 10:36:44;;;;;;;15.13;5.05;;;7.90;99.90;;;;;;5058008;28;20032;-89
2023/11/11 10:39:11;;;;;;;17.98;6.00;;;8.10;99.90;;;;;;5061728;28;20028;-88
2023/11/11 10:41:38;;;;;;;12.18;5.38;;;8.10;99.90;;;;;;5081049;28;20036;-89
2023/11/11 10:44:07;;;;;;;13.88;4.50;;;8.30;99.90;;;;;;5067716;28;20495;-89
2023/11/11 10:46:39;;;;;;;11.27;4.95;;;8.40;99.90;;;;;;5079842;28;20097;-89
2023/11/11 10:49:08;;;;;;;12.30;4.22;;;8.50;99.90;;;;;;5082173;28;20463;-88
2023/11/11 10:51:34;;;;;;;11.90;4.28;;;8.60;99.90;;;;;;5068445;28;20039;-88
2023/11/11 10:54:03;;;;;;;13.85;4.45;;;8.70;99.90;;;;;;5083624;28;20028;-89
2023/11/11 10:56:30;;;;;;;8.60;3.97;;;8.80;99.90;;;;;;5055077;28;20032;-88
2023/11/11 10:58:58;;;;;;;10.15;4.05;;;8.80;99.90;;;;;;5075145;28;20030;-89
2023/11/11 11:01:24;;;;;;;12.80;3.50;;;8.70;99.90;;;;;;5078836;28;20119;-89
2023/11/11 11:03:51;;;;;;;7.15;3.17;;;8.60;99.90;;;;;;5077473;28;20111;-89
2023/11/11 11:06:19;;;;;;;6.60;3.10;;;8.50;99.90;;;;;;5065061;28;20024;-87
2023/11/11 11:09:38;;;;;;;9.52;2.60;;;8.40;99.90;;;;;;5077357;28;20116;-86
2023/11/11 11:12:21;;;;;;;11.00;2.42;;;8.30;99.90;;;;;;5063611;28;20039;-89
2023/11/11 11:14:51;;;;;;;4.70;1.73;;;8.20;99.90;;;;;;5064359;28;20114;-89
2023/11/11 11:17:51;;;;;;;7.00;1.60;;;8.10;99.90;;;;;;5076540;28;20059;-88
2023/11/11 11:20:24;;;;;;;5.45;1.25;;;8.10;99.90;;;;;;5061006;28;20032;-88
2023/11/11 11:22:56;;;;;;;3.38;1.67;;;8.10;99.90;;;;;;5065090;28;20123;-88
2023/11/11 11:25:41;;;;;;;5.88;0.93;;;8.20;99.90;;;;;;5078242;28;20023;-88
2023/11/11 11:28:10;;;;;;;3.72;0.70;;;8.40;99.90;;;;;;5062033;28;20033;-88
2023/11/11 11:30:55;;;;;;;2.25;0.60;;;8.50;99.90;;;;;;5082655;28;20115;-88
2023/11/11 11:33:23;;;;;;;3.03;0.55;;;8.60;99.90;;;;;;5080739;28;20020;-88
2023/11/11 11:35:53;;;;;;;1.77;0.50;;;8.80;99.90;;;;;;5077916;28;20012;-87
2023/11/11 11:38:25;;;;;;;3.70;0.60;;;8.90;99.90;;;;;;5062216;28;20488;-88
2023/11/11 11:40:52;;;;;;;2.33;0.40;;;9.00;99.90;;;;;;5066381;28;20020;-88
2023/11/11 11:43:30;;;;;;;2.13;0.60;;;9.00;99.90;;;;;;5072739;28;20033;-88
2023/11/11 11:46:00;;;;;;;2.53;0.63;;;9.10;99.90;;;;;;5071029;28;20704;-88
2023/11/11 11:48:28;;;;;;;8.30;1.00;;;9.10;99.90;;;;;;5072232;28;20039;-89
2023/11/11 11:51:04;;;;;;;2.90;0.60;;;9.20;99.90;;;;;;5073196;28;20020;-88
2023/11/11 11:53:29;;;;;;;2.17;0.70;;;9.40;99.90;;;;;;5075321;28;20032;-88
2023/11/11 11:55:55;;;;;;;5.07;1.35;;;9.60;99.90;;;;;;5063424;28;20028;-88
2023/11/11 11:58:21;;;;;;;3.83;0.70;;;9.80;99.90;;;;;;5063168;28;20016;-89
2023/11/11 12:00:46;;;;;;;4.18;0.90;;;9.80;99.90;;;;;;5069709;28;20059;-88
2023/11/11 12:03:12;;;;;;;4.22;1.02;;;9.90;99.90;;;;;;5072958;28;20436;-89
2023/11/11 12:05:38;;;;;;;3.17;1.00;;;9.90;99.90;;;;;;5073979;28;20034;-88
2023/11/11 12:08:05;;;;;;;6.00;1.83;;;10.00;99.90;;;;;;5071088;28;20484;-88
2023/11/11 12:10:47;;;;;;;7.30;1.00;;;10.10;99.90;;;;;;5053974;28;20120;-89
2023/11/11 12:13:12;;;;;;;3.97;1.42;;;10.20;99.90;;;;;;5073864;28;20035;-89
2023/11/11 12:15:39;;;;;;;3.20;0.98;;;10.30;99.90;;;;;;5067093;28;20036;-89
2023/11/11 12:18:09;;;;;;;6.40;1.95;;;10.40;99.90;;;;;;5072481;28;20032;-89
2023/11/11 12:20:42;;;;;;;3.22;1.17;;;10.50;99.90;;;;;;5073937;28;20025;-90
2023/11/11 12:23:11;;;;;;;4.15;1.27;;;10.50;99.90;;;;;;5057347;28;20063;-89
2023/11/11 12:25:39;;;;;;;4.63;0.95;;;10.50;99.90;;;;;;5074028;28;20033;-88
2023/11/11 12:28:06;;;;;;;3.58;0.77;;;10.50;99.90;;;;;;5069153;28;20035;-88
2023/11/11 12:30:32;;;;;;;3.03;0.80;;;10.60;99.90;;;;;;5073836;28;20024;-89
2023/11/11 12:33:06;;;;;;;3.88;0.80;;;10.60;99.90;;;;;;5090001;28;20020;-88
2023/11/11 12:35:33;;;;;;;6.18;0.88;;;10.70;99.90;;;;;;5073576;28;20024;-89
2023/11/11 12:37:58;;;;;;;6.85;0.90;;;10.80;99.90;;;;;;5086555;28;20024;-89
2023/11/11 12:40:34;;;;;;;4.30;0.65;;;10.90;99.90;;;;;;5071948;28;21144;-89
2023/11/11 12:42:59;;;;;;;4.95;0.90;;;10.90;99.90;;;;;;5069933;28;20059;-88
2023/11/11 12:45:26;;;;;;;5.47;0.80;;;10.90;99.90;;;;;;5096805;28;20020;-88
2023/11/11 12:47:52;;;;;;;3.80;0.88;;;10.90;99.90;;;;;;5097843;28;20077;-88
2023/11/11 12:50:29;;;;;;;3.13;0.55;;;10.70;99.90;;;;;;5076799;28;20024;-88